Time;durP1;ratioP1;P1;durP2;ratioP2;P2;SDS_P1;SDS_P2;PMS_P1;PMS_P2;Temp;Humidity;BMP_temperature;BMP_pressure;BME280_temperature;BME280_humidity;BME280_pressure;Samples;Min_cycle;Max_cycle;Signal;HPM_P1;HPM_P2
2023/04/14 00:01:48;;;;;;;25.97;11.43;;;;;;;;;;760911;183;921064;-60
2023/04/14 00:04:13;;;;;;;14.33;11.30;;;;;;;;;;749225;187;920066;-60
2023/04/14 00:06:39;;;;;;;13.32;8.50;;;;;;;;;;750685;186;919811;-60
2023/04/14 00:09:05;;;;;;;12.13;9.17;;;;;;;;;;761240;183;921131;-60
2023/04/14 00:11:31;;;;;;;18.07;12.00;;;;;;;;;;757597;184;921486;-60
2023/04/14 00:13:59;;;;;;;13.43;8.90;;;;;;;;;;763952;183;865488;-61
2023/04/14 00:16:23;;;;;;;21.63;12.00;;;;;;;;;;768052;184;821047;-60
2023/04/14 00:18:49;;;;;;;11.40;8.30;;;;;;;;;;761799;184;919189;-59
2023/04/14 00:21:15;;;;;;;13.67;8.97;;;;;;;;;;762216;182;919392;-59
2023/04/14 00:23:40;;;;;;;16.50;10.47;;;;;;;;;;763784;182;913899;-60
2023/04/14 00:26:06;;;;;;;14.83;10.20;;;;;;;;;;766720;183;817650;-59
2023/04/14 00:28:32;;;;;;;21.10;13.40;;;;;;;;;;756084;183;921780;-60
2023/04/14 00:30:58;;;;;;;16.75;11.40;;;;;;;;;;750265;185;919368;-60
2023/04/14 00:33:24;;;;;;;17.30;12.97;;;;;;;;;;765065;182;886396;-61
2023/04/14 00:35:49;;;;;;;17.60;11.63;;;;;;;;;;770698;181;918752;-60
2023/04/14 00:38:15;;;;;;;23.45;12.85;;;;;;;;;;767521;182;919356;-59
2023/04/14 00:40:41;;;;;;;17.10;11.10;;;;;;;;;;768926;183;919759;-60
2023/04/14 00:43:07;;;;;;;19.53;11.40;;;;;;;;;;755491;183;817368;-60
2023/04/14 00:45:33;;;;;;;25.77;13.40;;;;;;;;;;759537;182;816965;-59
2023/04/14 00:47:59;;;;;;;15.50;8.97;;;;;;;;;;770035;182;919857;-60
2023/04/14 00:50:24;;;;;;;14.30;10.27;;;;;;;;;;764299;182;923527;-60
2023/04/14 00:52:51;;;;;;;23.13;14.60;;;;;;;;;;764857;182;817712;-60
2023/04/14 00:55:16;;;;;;;19.70;12.27;;;;;;;;;;762474;180;933804;-60
2023/04/14 00:57:42;;;;;;;20.43;14.93;;;;;;;;;;769337;182;919820;-65
2023/04/14 01:00:10;;;;;;;15.23;8.57;;;;;;;;;;765194;182;900770;-60
2023/04/14 01:02:34;;;;;;;30.05;15.38;;;;;;;;;;763847;181;919369;-60
2023/04/14 01:05:00;;;;;;;23.20;15.43;;;;;;;;;;762585;184;790777;-60
2023/04/14 01:07:26;;;;;;;26.77;15.73;;;;;;;;;;767219;181;1016562;-60
2023/04/14 01:09:52;;;;;;;22.33;15.65;;;;;;;;;;768248;182;995878;-59
2023/04/14 01:12:22;;;;;;;27.27;13.60;;;;;;;;;;771519;182;919140;-60
2023/04/14 01:15:03;;;;;;;23.33;16.07;;;;;;;;;;763079;181;816591;-60
2023/04/14 01:17:31;;;;;;;23.47;10.60;;;;;;;;;;762081;182;918987;-60
2023/04/14 01:19:57;;;;;;;23.98;16.27;;;;;;;;;;755734;182;916192;-60
2023/04/14 01:22:22;;;;;;;26.20;16.73;;;;;;;;;;750542;182;930395;-60
2023/04/14 01:24:51;;;;;;;21.53;12.67;;;;;;;;;;770764;181;1022545;-60
2023/04/14 01:27:19;;;;;;;14.67;10.03;;;;;;;;;;765210;181;919679;-60
2023/04/14 01:30:00;;;;;;;25.20;12.97;;;;;;;;;;767634;183;824626;-61
2023/04/14 01:32:26;;;;;;;21.57;13.53;;;;;;;;;;767895;182;917587;-60
2023/04/14 01:34:53;;;;;;;24.13;14.10;;;;;;;;;;765615;183;920333;-61
2023/04/14 01:37:29;;;;;;;29.13;15.00;;;;;;;;;;762636;184;915456;-61
2023/04/14 01:39:55;;;;;;;24.37;14.80;;;;;;;;;;759333;183;923516;-60
2023/04/14 01:42:21;;;;;;;25.33;16.07;;;;;;;;;;760842;180;921518;-60
2023/04/14 01:44:47;;;;;;;26.43;13.37;;;;;;;;;;763136;181;921131;-60
2023/04/14 01:47:13;;;;;;;23.23;15.13;;;;;;;;;;769527;180;819117;-60
2023/04/14 01:49:39;;;;;;;34.20;19.37;;;;;;;;;;765220;182;919425;-60
2023/04/14 01:52:05;;;;;;;24.73;15.50;;;;;;;;;;766028;182;914220;-61
2023/04/14 01:54:30;;;;;;;25.37;16.85;;;;;;;;;;773848;182;919377;-60
2023/04/14 01:56:56;;;;;;;33.93;17.20;;;;;;;;;;769951;181;919794;-61
2023/04/14 01:59:22;;;;;;;30.15;17.98;;;;;;;;;;767699;181;958991;-61
2023/04/14 02:01:48;;;;;;;21.07;12.70;;;;;;;;;;770231;182;921706;-61
2023/04/14 02:04:14;;;;;;;27.17;13.93;;;;;;;;;;767979;181;918545;-60
2023/04/14 02:06:40;;;;;;;23.80;14.00;;;;;;;;;;767492;181;919477;-61
2023/04/14 02:09:09;;;;;;;29.50;15.97;;;;;;;;;;768831;182;918432;-60
2023/04/14 02:11:31;;;;;;;27.60;12.10;;;;;;;;;;757829;183;919309;-60
2023/04/14 02:13:57;;;;;;;29.40;16.07;;;;;;;;;;763340;182;913631;-60
2023/04/14 02:16:23;;;;;;;38.47;19.77;;;;;;;;;;764528;182;919582;-61
2023/04/14 02:18:49;;;;;;;31.43;16.77;;;;;;;;;;768352;182;919733;-61
2023/04/14 02:21:15;;;;;;;27.63;15.80;;;;;;;;;;762634;184;919495;-61
2023/04/14 02:23:40;;;;;;;21.43;10.40;;;;;;;;;;767203;184;637036;-61
2023/04/14 02:26:07;;;;;;;26.10;13.57;;;;;;;;;;770752;183;623923;-62
2023/04/14 02:28:33;;;;;;;37.23;18.97;;;;;;;;;;768343;182;622916;-61
2023/04/14 02:30:59;;;;;;;18.77;11.87;;;;;;;;;;770772;181;626853;-63
2023/04/14 02:33:25;;;;;;;29.33;16.20;;;;;;;;;;773846;181;818822;-61
2023/04/14 02:35:51;;;;;;;33.30;18.30;;;;;;;;;;769261;182;618926;-63
2023/04/14 02:38:18;;;;;;;33.43;16.00;;;;;;;;;;760170;182;922080;-63
2023/04/14 02:40:43;;;;;;;32.53;19.90;;;;;;;;;;755668;181;919351;-63
2023/04/14 02:43:12;;;;;;;33.23;18.70;;;;;;;;;;769487;182;816130;-63
2023/04/14 02:45:38;;;;;;;33.63;16.97;;;;;;;;;;749878;184;918858;-61
2023/04/14 02:48:04;;;;;;;26.57;13.57;;;;;;;;;;753391;182;916530;-62
2023/04/14 02:50:29;;;;;;;24.03;13.10;;;;;;;;;;768465;182;867060;-61
2023/04/14 02:52:55;;;;;;;18.70;10.60;;;;;;;;;;760416;182;917010;-61
2023/04/14 02:55:21;;;;;;;32.53;14.70;;;;;;;;;;762863;182;920625;-63
2023/04/14 02:57:48;;;;;;;28.47;17.63;;;;;;;;;;765272;182;819415;-67
2023/04/14 03:00:14;;;;;;;22.00;12.03;;;;;;;;;;769587;180;921483;-61
2023/04/14 03:02:39;;;;;;;22.83;11.70;;;;;;;;;;772648;181;751693;-61
2023/04/14 03:05:06;;;;;;;36.83;18.70;;;;;;;;;;764713;182;920726;-62
2023/04/14 03:07:31;;;;;;;24.60;12.07;;;;;;;;;;761952;181;919572;-61
2023/04/14 03:09:57;;;;;;;31.97;16.77;;;;;;;;;;765044;182;917976;-63
2023/04/14 03:12:23;;;;;;;33.43;16.97;;;;;;;;;;760628;184;918500;-63
2023/04/14 03:14:49;;;;;;;34.23;16.90;;;;;;;;;;759361;183;915498;-64
2023/04/14 03:17:16;;;;;;;27.90;14.43;;;;;;;;;;752897;185;919572;-61
2023/04/14 03:19:41;;;;;;;15.77;8.70;;;;;;;;;;750710;186;918860;-62
2023/04/14 03:22:07;;;;;;;28.92;14.25;;;;;;;;;;756250;184;921381;-62
2023/04/14 03:24:33;;;;;;;19.50;10.37;;;;;;;;;;764454;182;941275;-61
2023/04/14 03:27:00;;;;;;;32.30;13.93;;;;;;;;;;764948;182;922454;-60
2023/04/14 03:29:26;;;;;;;26.33;13.63;;;;;;;;;;757913;184;926797;-61
2023/04/14 03:31:52;;;;;;;22.48;12.02;;;;;;;;;;765695;182;919296;-63
2023/04/14 03:34:17;;;;;;;27.93;14.30;;;;;;;;;;765171;182;912920;-63
2023/04/14 03:36:43;;;;;;;26.63;11.93;;;;;;;;;;762645;184;918651;-62
2023/04/14 03:39:09;;;;;;;38.27;16.73;;;;;;;;;;769878;182;916805;-62
2023/04/14 03:41:36;;;;;;;28.57;10.83;;;;;;;;;;764970;182;917396;-63
2023/04/14 03:44:01;;;;;;;21.30;11.50;;;;;;;;;;748935;183;919268;-62
2023/04/14 03:46:27;;;;;;;31.57;16.93;;;;;;;;;;765779;183;919279;-61
2023/04/14 03:48:53;;;;;;;30.53;16.93;;;;;;;;;;762467;180;919444;-63
2023/04/14 03:51:18;;;;;;;46.67;28.33;;;;;;;;;;750668;185;917022;-63
2023/04/14 03:53:44;;;;;;;39.63;19.90;;;;;;;;;;758913;181;918572;-63
2023/04/14 03:56:12;;;;;;;29.10;16.83;;;;;;;;;;771286;181;919270;-62
2023/04/14 03:58:36;;;;;;;26.20;15.30;;;;;;;;;;758038;181;921045;-60
2023/04/14 04:01:02;;;;;;;31.50;16.50;;;;;;;;;;750249;186;819168;-62
2023/04/14 04:03:28;;;;;;;30.03;13.10;;;;;;;;;;757916;182;818313;-61
2023/04/14 04:05:54;;;;;;;30.47;14.20;;;;;;;;;;762695;184;818896;-62
2023/04/14 04:08:19;;;;;;;35.23;15.97;;;;;;;;;;766451;182;923053;-62
2023/04/14 04:10:45;;;;;;;20.57;10.50;;;;;;;;;;770652;182;806667;-60
2023/04/14 04:13:12;;;;;;;33.83;18.00;;;;;;;;;;753133;184;884070;-60
2023/04/14 04:15:38;;;;;;;31.20;14.47;;;;;;;;;;758282;182;918696;-61
2023/04/14 04:18:03;;;;;;;41.50;14.03;;;;;;;;;;759444;182;919584;-62
2023/04/14 04:20:29;;;;;;;31.03;13.90;;;;;;;;;;767133;182;922638;-63
2023/04/14 04:22:55;;;;;;;28.53;14.87;;;;;;;;;;763168;181;918785;-61
2023/04/14 04:25:21;;;;;;;32.73;15.80;;;;;;;;;;765135;182;919293;-63
2023/04/14 04:27:47;;;;;;;34.53;16.00;;;;;;;;;;771805;182;884009;-60
2023/04/14 04:30:13;;;;;;;43.23;19.87;;;;;;;;;;761656;182;918399;-61
2023/04/14 04:32:39;;;;;;;32.17;13.60;;;;;;;;;;752930;182;859073;-62
2023/04/14 04:35:06;;;;;;;20.37;9.03;;;;;;;;;;763244;182;815560;-61
2023/04/14 04:37:32;;;;;;;26.00;14.00;;;;;;;;;;746690;184;917095;-61
2023/04/14 04:39:57;;;;;;;43.20;19.40;;;;;;;;;;755069;180;844018;-63
2023/04/14 04:42:23;;;;;;;30.17;16.33;;;;;;;;;;764949;182;1018115;-63
2023/04/14 04:44:49;;;;;;;114.23;49.53;;;;;;;;;;773363;182;914142;-62
2023/04/14 04:47:14;;;;;;;45.72;21.30;;;;;;;;;;761252;182;911557;-60
2023/04/14 04:49:40;;;;;;;46.33;19.37;;;;;;;;;;762205;182;920376;-60
2023/04/14 04:52:06;;;;;;;45.40;23.40;;;;;;;;;;766946;182;844117;-62
2023/04/14 04:54:32;;;;;;;37.67;18.52;;;;;;;;;;760641;182;914834;-62
2023/04/14 04:56:58;;;;;;;56.92;21.67;;;;;;;;;;758729;180;915828;-62
2023/04/14 04:59:24;;;;;;;43.90;17.77;;;;;;;;;;761526;182;913588;-60
2023/04/14 05:01:49;;;;;;;41.07;19.37;;;;;;;;;;758812;182;1021557;-60
2023/04/14 05:04:16;;;;;;;44.30;21.10;;;;;;;;;;753653;182;919662;-60
2023/04/14 05:06:41;;;;;;;45.27;22.03;;;;;;;;;;756474;182;913396;-60
2023/04/14 05:09:07;;;;;;;49.67;23.60;;;;;;;;;;756897;183;923020;-61
2023/04/14 05:11:33;;;;;;;41.22;20.62;;;;;;;;;;755592;181;951402;-59
2023/04/14 05:13:59;;;;;;;51.43;22.97;;;;;;;;;;764566;180;919213;-59
2023/04/14 05:16:25;;;;;;;48.13;24.27;;;;;;;;;;768047;182;816831;-59
2023/04/14 05:18:51;;;;;;;51.03;21.20;;;;;;;;;;760950;183;817043;-59
2023/04/14 05:21:16;;;;;;;43.08;19.90;;;;;;;;;;766226;182;818187;-60
2023/04/14 05:23:42;;;;;;;40.17;18.57;;;;;;;;;;771964;182;919212;-59
2023/04/14 05:26:08;;;;;;;51.53;22.40;;;;;;;;;;768455;182;920001;-61
2023/04/14 05:28:34;;;;;;;44.25;19.15;;;;;;;;;;766248;181;916690;-60
2023/04/14 05:31:00;;;;;;;22.93;12.70;;;;;;;;;;754708;183;918952;-60
2023/04/14 05:33:25;;;;;;;34.90;16.57;;;;;;;;;;759186;185;921058;-59
2023/04/14 05:35:51;;;;;;;41.00;15.97;;;;;;;;;;757992;183;816989;-60
2023/04/14 05:38:17;;;;;;;48.10;19.93;;;;;;;;;;755883;182;919571;-60
2023/04/14 05:40:43;;;;;;;27.60;15.23;;;;;;;;;;762439;182;1626741;-59
2023/04/14 05:43:09;;;;;;;39.80;18.80;;;;;;;;;;765811;181;918231;-59
2023/04/14 05:45:35;;;;;;;31.90;15.03;;;;;;;;;;762079;181;920094;-59
2023/04/14 05:48:01;;;;;;;32.53;12.98;;;;;;;;;;766630;182;917529;-60
2023/04/14 05:50:26;;;;;;;31.07;11.10;;;;;;;;;;767115;181;885583;-60
2023/04/14 05:52:52;;;;;;;33.87;17.07;;;;;;;;;;759909;181;883707;-59
2023/04/14 05:55:18;;;;;;;21.05;9.23;;;;;;;;;;767023;183;919622;-59
2023/04/14 05:57:44;;;;;;;19.43;9.17;;;;;;;;;;765427;181;919334;-61
2023/04/14 06:00:11;;;;;;;18.20;10.07;;;;;;;;;;760216;182;919820;-61
2023/04/14 06:02:36;;;;;;;33.50;13.33;;;;;;;;;;761344;181;919442;-60
2023/04/14 06:05:05;;;;;;;28.33;14.47;;;;;;;;;;770460;182;921913;-60
2023/04/14 06:07:28;;;;;;;17.63;10.70;;;;;;;;;;759084;182;918883;-61
2023/04/14 06:09:54;;;;;;;30.30;12.23;;;;;;;;;;758993;182;919363;-61
2023/04/14 06:12:19;;;;;;;18.17;7.57;;;;;;;;;;771488;182;860211;-60
2023/04/14 06:14:45;;;;;;;22.20;10.40;;;;;;;;;;761324;182;918912;-61
2023/04/14 06:17:11;;;;;;;27.93;14.53;;;;;;;;;;758921;182;918405;-60
2023/04/14 06:19:37;;;;;;;16.60;11.30;;;;;;;;;;768038;181;916020;-61
2023/04/14 06:22:04;;;;;;;24.30;12.43;;;;;;;;;;758960;182;918409;-60
2023/04/14 06:24:29;;;;;;;25.63;13.70;;;;;;;;;;759261;182;917421;-60
2023/04/14 06:26:55;;;;;;;16.63;8.80;;;;;;;;;;763832;182;924786;-60
2023/04/14 06:29:20;;;;;;;19.87;8.87;;;;;;;;;;767055;182;922150;-61
2023/04/14 06:31:46;;;;;;;28.90;14.87;;;;;;;;;;766055;182;820282;-61
2023/04/14 06:34:13;;;;;;;17.07;8.70;;;;;;;;;;764788;181;903824;-61
2023/04/14 06:36:38;;;;;;;12.30;6.63;;;;;;;;;;771156;182;913919;-62
2023/04/14 06:39:04;;;;;;;12.60;7.00;;;;;;;;;;759808;182;919602;-62
2023/04/14 06:41:30;;;;;;;6.87;3.70;;;;;;;;;;763079;181;920742;-61
2023/04/14 06:43:56;;;;;;;16.07;8.77;;;;;;;;;;764664;181;910531;-61
2023/04/14 06:46:22;;;;;;;14.80;7.20;;;;;;;;;;754526;182;915182;-61
2023/04/14 06:48:48;;;;;;;20.30;10.70;;;;;;;;;;754897;182;852116;-61
2023/04/14 06:51:14;;;;;;;11.82;7.95;;;;;;;;;;761183;182;917498;-61
2023/04/14 06:53:40;;;;;;;21.93;10.33;;;;;;;;;;768559;182;908721;-62
2023/04/14 06:56:07;;;;;;;11.80;6.60;;;;;;;;;;759909;182;905042;-61
2023/04/14 06:58:33;;;;;;;16.00;9.03;;;;;;;;;;764696;182;918321;-63
2023/04/14 07:00:59;;;;;;;15.40;9.33;;;;;;;;;;768650;182;917980;-61
2023/04/14 07:03:24;;;;;;;15.50;8.27;;;;;;;;;;758804;182;921199;-61
2023/04/14 07:05:50;;;;;;;14.48;6.93;;;;;;;;;;760146;182;1227428;-62
2023/04/14 07:08:16;;;;;;;20.00;9.53;;;;;;;;;;767947;181;919204;-62
2023/04/14 07:10:42;;;;;;;13.50;7.10;;;;;;;;;;761969;182;918909;-61
2023/04/14 07:13:08;;;;;;;23.38;12.90;;;;;;;;;;764649;182;913783;-61
2023/04/14 07:15:34;;;;;;;17.50;11.00;;;;;;;;;;764434;181;914293;-62
2023/04/14 07:18:00;;;;;;;18.23;10.67;;;;;;;;;;758652;182;917121;-62
2023/04/14 07:20:26;;;;;;;16.40;10.20;;;;;;;;;;766252;181;816176;-62
2023/04/14 07:22:51;;;;;;;14.57;9.77;;;;;;;;;;761103;182;919554;-62
2023/04/14 07:25:17;;;;;;;25.23;13.53;;;;;;;;;;766644;182;913658;-62
2023/04/14 07:27:43;;;;;;;19.23;11.23;;;;;;;;;;745975;184;921665;-63
2023/04/14 07:30:09;;;;;;;17.47;9.87;;;;;;;;;;753014;182;921199;-62
2023/04/14 07:32:36;;;;;;;12.53;8.73;;;;;;;;;;766911;182;919287;-62
2023/04/14 07:35:01;;;;;;;21.37;13.07;;;;;;;;;;763431;182;822982;-62
2023/04/14 07:37:27;;;;;;;19.80;11.23;;;;;;;;;;753375;182;919051;-63
2023/04/14 07:39:53;;;;;;;18.57;11.83;;;;;;;;;;760168;181;921781;-61
2023/04/14 07:42:18;;;;;;;25.93;14.53;;;;;;;;;;758615;182;918928;-61
2023/04/14 07:44:44;;;;;;;51.37;20.37;;;;;;;;;;767510;181;918851;-63
2023/04/14 07:47:10;;;;;;;23.53;13.40;;;;;;;;;;771599;181;826555;-63
2023/04/14 07:49:36;;;;;;;37.13;20.57;;;;;;;;;;767621;182;815808;-61
2023/04/14 07:52:02;;;;;;;16.73;11.15;;;;;;;;;;765695;182;818371;-63
2023/04/14 07:54:28;;;;;;;19.60;12.60;;;;;;;;;;758402;182;921123;-62
2023/04/14 07:56:54;;;;;;;32.97;17.00;;;;;;;;;;768718;182;918959;-62
2023/04/14 07:59:19;;;;;;;26.50;13.90;;;;;;;;;;763696;182;919049;-61
2023/04/14 08:01:46;;;;;;;25.52;15.15;;;;;;;;;;765929;182;944423;-61
2023/04/14 08:04:12;;;;;;;17.90;12.80;;;;;;;;;;765356;180;919000;-62
2023/04/14 08:06:38;;;;;;;20.17;12.50;;;;;;;;;;742735;183;915822;-62
2023/04/14 08:09:04;;;;;;;23.73;9.97;;;;;;;;;;745241;186;819605;-62
2023/04/14 08:11:29;;;;;;;24.48;15.18;;;;;;;;;;766296;181;916171;-62
2023/04/14 08:13:55;;;;;;;23.17;14.43;;;;;;;;;;765800;184;919363;-60
2023/04/14 08:16:21;;;;;;;31.87;16.80;;;;;;;;;;751981;183;844153;-61
2023/04/14 08:18:47;;;;;;;27.13;13.60;;;;;;;;;;763986;182;905890;-62
2023/04/14 08:21:13;;;;;;;28.40;18.03;;;;;;;;;;769697;182;914863;-60
2023/04/14 08:23:39;;;;;;;20.13;9.70;;;;;;;;;;766690;182;919215;-62
2023/04/14 08:26:05;;;;;;;29.35;14.13;;;;;;;;;;766806;182;919814;-60
2023/04/14 08:28:30;;;;;;;20.43;12.30;;;;;;;;;;768325;182;847824;-61
2023/04/14 08:30:56;;;;;;;29.43;16.97;;;;;;;;;;763121;183;916269;-63
2023/04/14 08:33:22;;;;;;;32.00;18.30;;;;;;;;;;762136;182;917093;-62
2023/04/14 08:35:48;;;;;;;28.20;15.70;;;;;;;;;;763774;182;914754;-60
2023/04/14 08:38:14;;;;;;;35.53;16.70;;;;;;;;;;767710;183;815895;-62
2023/04/14 08:40:40;;;;;;;30.53;17.97;;;;;;;;;;763519;183;918798;-60
2023/04/14 08:43:05;;;;;;;35.80;18.07;;;;;;;;;;751861;184;919887;-61
2023/04/14 08:45:31;;;;;;;31.33;18.17;;;;;;;;;;763921;182;818892;-61
2023/04/14 08:47:58;;;;;;;42.17;20.90;;;;;;;;;;761916;182;919957;-61
2023/04/14 08:50:25;;;;;;;29.13;13.93;;;;;;;;;;764183;182;920050;-61
2023/04/14 08:52:50;;;;;;;33.70;18.00;;;;;;;;;;768410;182;919240;-62
2023/04/14 08:55:16;;;;;;;36.10;17.73;;;;;;;;;;748952;184;919945;-61
2023/04/14 08:57:42;;;;;;;31.40;13.90;;;;;;;;;;764097;180;919478;-62
2023/04/14 09:00:09;;;;;;;25.40;14.60;;;;;;;;;;762359;181;1004213;-62
2023/04/14 09:02:35;;;;;;;34.15;15.68;;;;;;;;;;770144;181;920645;-61
2023/04/14 09:05:00;;;;;;;38.87;20.30;;;;;;;;;;764664;182;919700;-61
2023/04/14 09:07:26;;;;;;;43.58;23.25;;;;;;;;;;764719;179;914157;-61
2023/04/14 09:09:52;;;;;;;23.27;13.30;;;;;;;;;;759143;183;819755;-60
2023/04/14 09:12:18;;;;;;;33.17;19.13;;;;;;;;;;762342;182;919059;-60
2023/04/14 09:14:45;;;;;;;42.17;22.55;;;;;;;;;;764981;182;918809;-60
2023/04/14 09:17:10;;;;;;;36.13;19.40;;;;;;;;;;755503;181;919256;-61
2023/04/14 09:19:35;;;;;;;34.20;17.90;;;;;;;;;;764326;182;817666;-62
2023/04/14 09:22:01;;;;;;;37.10;19.13;;;;;;;;;;764542;182;919596;-61
2023/04/14 09:24:28;;;;;;;30.00;15.67;;;;;;;;;;764319;182;919990;-61
2023/04/14 09:26:54;;;;;;;29.67;13.50;;;;;;;;;;763946;182;915923;-60
2023/04/14 09:29:20;;;;;;;36.33;18.30;;;;;;;;;;766071;181;831341;-61
2023/04/14 09:31:45;;;;;;;34.80;21.50;;;;;;;;;;758759;182;923509;-62
2023/04/14 09:34:14;;;;;;;43.10;21.70;;;;;;;;;;751542;184;920309;-60
2023/04/14 09:36:40;;;;;;;40.57;20.83;;;;;;;;;;760831;181;882147;-62
2023/04/14 09:39:06;;;;;;;36.43;20.07;;;;;;;;;;766683;181;895751;-62
2023/04/14 09:41:32;;;;;;;43.43;23.30;;;;;;;;;;759112;182;919021;-62
2023/04/14 09:43:57;;;;;;;53.90;31.17;;;;;;;;;;760600;183;920422;-61
2023/04/14 09:46:23;;;;;;;38.70;21.40;;;;;;;;;;759955;182;919743;-62
2023/04/14 09:48:50;;;;;;;29.23;18.03;;;;;;;;;;760157;182;919474;-62
2023/04/14 09:51:16;;;;;;;24.93;15.83;;;;;;;;;;768403;181;918951;-62
2023/04/14 09:53:42;;;;;;;37.50;19.00;;;;;;;;;;762707;182;921902;-61
2023/04/14 09:56:09;;;;;;;36.50;20.20;;;;;;;;;;761737;182;919269;-61
2023/04/14 09:58:34;;;;;;;29.17;16.77;;;;;;;;;;763888;182;919006;-63
2023/04/14 10:01:04;;;;;;;29.47;17.63;;;;;;;;;;766715;181;919368;-61
2023/04/14 10:03:34;;;;;;;33.37;17.93;;;;;;;;;;755235;182;915280;-62
2023/04/14 10:06:00;;;;;;;37.45;21.15;;;;;;;;;;757759;182;916110;-62
2023/04/14 10:08:31;;;;;;;33.90;15.50;;;;;;;;;;765069;182;914898;-62
2023/04/14 10:10:57;;;;;;;28.13;15.50;;;;;;;;;;759883;182;921547;-62
2023/04/14 10:13:23;;;;;;;34.57;18.50;;;;;;;;;;753134;183;920181;-62
2023/04/14 10:15:49;;;;;;;43.33;25.40;;;;;;;;;;758339;181;919402;-62
2023/04/14 10:18:15;;;;;;;32.47;18.40;;;;;;;;;;769876;181;817042;-62
2023/04/14 10:20:40;;;;;;;31.23;19.37;;;;;;;;;;765638;182;919033;-61
2023/04/14 10:23:06;;;;;;;31.87;19.10;;;;;;;;;;760911;181;919196;-61
2023/04/14 10:25:32;;;;;;;36.67;20.67;;;;;;;;;;771322;182;919640;-62
2023/04/14 10:27:58;;;;;;;37.60;22.83;;;;;;;;;;758600;182;847644;-61
2023/04/14 10:30:24;;;;;;;23.43;15.17;;;;;;;;;;762431;181;926833;-61
2023/04/14 10:32:50;;;;;;;40.35;22.37;;;;;;;;;;762965;182;920062;-62
2023/04/14 10:35:17;;;;;;;36.07;20.80;;;;;;;;;;762890;182;921904;-62
2023/04/14 10:37:42;;;;;;;40.17;25.40;;;;;;;;;;756180;182;918830;-61
2023/04/14 10:40:07;;;;;;;47.23;24.87;;;;;;;;;;758606;182;915670;-62
2023/04/14 10:42:39;;;;;;;49.10;21.63;;;;;;;;;;762692;182;812241;-61
2023/04/14 10:45:06;;;;;;;32.77;19.60;;;;;;;;;;759698;179;919238;-61
2023/04/14 10:47:32;;;;;;;35.43;22.80;;;;;;;;;;759164;182;918360;-62
2023/04/14 10:50:03;;;;;;;32.00;20.03;;;;;;;;;;766012;182;886645;-61
2023/04/14 10:52:30;;;;;;;41.67;23.70;;;;;;;;;;763235;182;921483;-61
2023/04/14 10:55:01;;;;;;;52.43;32.00;;;;;;;;;;758460;182;919180;-63
2023/04/14 10:57:26;;;;;;;58.77;24.17;;;;;;;;;;754315;182;920960;-62
2023/04/14 10:59:52;;;;;;;37.40;23.77;;;;;;;;;;771141;181;966152;-62
2023/04/14 11:02:32;;;;;;;43.77;24.50;;;;;;;;;;764589;182;1022394;-62
2023/04/14 11:04:58;;;;;;;53.87;23.17;;;;;;;;;;766365;182;919514;-61
2023/04/14 11:07:24;;;;;;;35.40;20.97;;;;;;;;;;763997;182;918772;-62
2023/04/14 11:09:50;;;;;;;48.20;29.07;;;;;;;;;;770411;182;916137;-62
2023/04/14 11:12:23;;;;;;;52.13;31.87;;;;;;;;;;761926;182;941023;-61
2023/04/14 11:14:49;;;;;;;47.93;28.20;;;;;;;;;;763052;182;918147;-62
2023/04/14 11:17:19;;;;;;;47.17;29.10;;;;;;;;;;765002;182;920057;-61
2023/04/14 11:19:44;;;;;;;37.30;24.87;;;;;;;;;;755479;184;921721;-61
2023/04/14 11:22:10;;;;;;;59.90;34.38;;;;;;;;;;755270;183;909605;-61
2023/04/14 11:24:37;;;;;;;43.70;28.93;;;;;;;;;;761268;182;924878;-61
2023/04/14 11:27:02;;;;;;;41.70;26.30;;;;;;;;;;756266;182;919258;-62
2023/04/14 11:29:28;;;;;;;40.43;23.90;;;;;;;;;;766630;182;918940;-62
2023/04/14 11:32:06;;;;;;;46.00;26.47;;;;;;;;;;764122;182;802553;-63
2023/04/14 11:34:33;;;;;;;57.77;33.00;;;;;;;;;;765759;182;914915;-61
2023/04/14 11:36:57;;;;;;;54.47;30.80;;;;;;;;;;765191;180;880311;-61
2023/04/14 11:39:23;;;;;;;62.27;35.07;;;;;;;;;;768679;183;811799;-61
2023/04/14 11:41:49;;;;;;;44.20;23.87;;;;;;;;;;764850;182;916473;-62
2023/04/14 11:44:15;;;;;;;63.37;33.63;;;;;;;;;;764845;183;921184;-62
2023/04/14 11:46:41;;;;;;;50.17;27.43;;;;;;;;;;770161;180;863990;-62
2023/04/14 11:49:07;;;;;;;46.97;27.40;;;;;;;;;;765443;180;809291;-61
2023/04/14 11:51:33;;;;;;;43.63;24.27;;;;;;;;;;754491;182;912726;-61
2023/04/14 11:53:58;;;;;;;42.27;24.30;;;;;;;;;;756715;182;914721;-61
2023/04/14 11:56:24;;;;;;;40.03;26.03;;;;;;;;;;763577;181;909981;-61
2023/04/14 11:58:52;;;;;;;50.80;31.63;;;;;;;;;;751585;185;937398;-61
2023/04/14 12:01:16;;;;;;;49.28;29.83;;;;;;;;;;762440;182;915258;-62
2023/04/14 12:03:42;;;;;;;47.17;29.23;;;;;;;;;;765024;181;916148;-62
2023/04/14 12:06:07;;;;;;;55.60;33.83;;;;;;;;;;759911;182;940361;-61
2023/04/14 12:08:33;;;;;;;47.13;27.08;;;;;;;;;;759632;181;923300;-62
2023/04/14 12:11:05;;;;;;;42.30;23.97;;;;;;;;;;766816;182;877737;-62
2023/04/14 12:13:31;;;;;;;35.33;21.23;;;;;;;;;;760410;181;917108;-61
2023/04/14 12:15:57;;;;;;;40.73;24.60;;;;;;;;;;762586;182;921190;-61
2023/04/14 12:18:23;;;;;;;41.83;24.13;;;;;;;;;;762076;181;914726;-61
2023/04/14 12:20:51;;;;;;;45.53;25.47;;;;;;;;;;767722;181;921780;-61
2023/04/14 12:23:16;;;;;;;51.65;33.20;;;;;;;;;;764378;181;918697;-62
2023/04/14 12:25:42;;;;;;;43.53;29.67;;;;;;;;;;761537;181;919218;-62
2023/04/14 12:28:08;;;;;;;45.00;28.87;;;;;;;;;;768007;182;858881;-61
2023/04/14 12:30:34;;;;;;;40.00;24.27;;;;;;;;;;764841;182;918682;-62
2023/04/14 12:33:00;;;;;;;35.47;18.30;;;;;;;;;;764546;181;919331;-61
2023/04/14 12:35:26;;;;;;;40.53;25.97;;;;;;;;;;771513;181;812103;-61
2023/04/14 12:37:52;;;;;;;33.37;21.07;;;;;;;;;;763014;181;821400;-61
2023/04/14 12:40:18;;;;;;;48.13;26.83;;;;;;;;;;762279;181;850008;-61
2023/04/14 12:42:44;;;;;;;34.03;22.80;;;;;;;;;;762251;182;919160;-61
2023/04/14 12:45:10;;;;;;;39.70;22.40;;;;;;;;;;760277;183;816005;-61
2023/04/14 12:47:35;;;;;;;39.13;24.50;;;;;;;;;;753388;182;919192;-61
2023/04/14 12:50:01;;;;;;;35.08;20.62;;;;;;;;;;764043;182;817259;-62
2023/04/14 12:52:33;;;;;;;38.37;23.30;;;;;;;;;;763473;182;816447;-61
2023/04/14 12:54:58;;;;;;;37.07;25.00;;;;;;;;;;760985;182;901379;-61
2023/04/14 12:57:25;;;;;;;40.57;25.30;;;;;;;;;;760322;182;919641;-61
2023/04/14 12:59:50;;;;;;;39.40;24.40;;;;;;;;;;765299;182;749420;-62
2023/04/14 13:02:16;;;;;;;39.90;24.33;;;;;;;;;;760435;182;818868;-61
2023/04/14 13:04:42;;;;;;;50.70;31.80;;;;;;;;;;767994;182;897258;-61
2023/04/14 13:07:08;;;;;;;90.60;50.55;;;;;;;;;;762951;182;876925;-61
2023/04/14 13:09:34;;;;;;;36.77;22.33;;;;;;;;;;765872;182;918130;-62
2023/04/14 13:12:00;;;;;;;62.53;41.10;;;;;;;;;;756694;182;921310;-62
2023/04/14 13:14:25;;;;;;;60.03;41.33;;;;;;;;;;756909;182;919275;-62
2023/04/14 13:16:51;;;;;;;48.27;31.00;;;;;;;;;;769201;182;940503;-62
2023/04/14 13:19:17;;;;;;;40.13;25.23;;;;;;;;;;755847;182;921666;-61
2023/04/14 13:21:43;;;;;;;52.83;27.33;;;;;;;;;;766278;181;916587;-62
2023/04/14 13:24:09;;;;;;;38.93;23.53;;;;;;;;;;766388;182;862849;-62
2023/04/14 13:26:35;;;;;;;47.73;31.70;;;;;;;;;;762524;181;1024697;-62
2023/04/14 13:29:00;;;;;;;55.70;33.93;;;;;;;;;;762530;180;918959;-61
2023/04/14 13:31:27;;;;;;;33.67;23.57;;;;;;;;;;763826;183;921057;-62
2023/04/14 13:33:52;;;;;;;52.37;33.53;;;;;;;;;;772086;182;921073;-62
2023/04/14 13:36:18;;;;;;;47.90;31.10;;;;;;;;;;764846;182;820853;-61
2023/04/14 13:38:44;;;;;;;51.60;35.13;;;;;;;;;;763856;181;834368;-61
2023/04/14 13:41:10;;;;;;;51.00;32.30;;;;;;;;;;754229;185;917895;-61
2023/04/14 13:43:36;;;;;;;49.97;30.57;;;;;;;;;;751034;181;915808;-62
2023/04/14 13:46:01;;;;;;;53.70;32.80;;;;;;;;;;758229;183;828024;-61
2023/04/14 13:48:27;;;;;;;48.33;31.47;;;;;;;;;;763516;183;844849;-62
2023/04/14 13:50:54;;;;;;;55.40;34.30;;;;;;;;;;754031;183;919351;-62
2023/04/14 13:53:19;;;;;;;49.87;33.37;;;;;;;;;;757995;182;920920;-62
2023/04/14 13:55:45;;;;;;;36.53;19.67;;;;;;;;;;762973;182;921426;-60
2023/04/14 13:58:11;;;;;;;41.10;23.00;;;;;;;;;;771363;183;900635;-63
2023/04/14 14:00:36;;;;;;;54.00;23.90;;;;;;;;;;767630;182;919635;-63